Time;durP1;ratioP1;P1;durP2;ratioP2;P2;SDS_P1;SDS_P2;PMS_P1;PMS_P2;Temp;Humidity;BMP_temperature;BMP_pressure;BME280_temperature;BME280_humidity;BME280_pressure;Samples;Min_cycle;Max_cycle;Signal;HPM_P1;HPM_P2
2022/06/16 00:00:56;;;;;;;5.38;2.80;;;;;;;27.50;44.54;100935.78;4984984;28;20045;-81
2022/06/16 00:03:41;;;;;;;5.57;4.13;;;;;;;27.40;44.44;100928.34;5000201;28;20518;-81
2022/06/16 00:06:26;;;;;;;11.52;4.38;;;;;;;27.29;44.40;100930.53;4973484;28;20420;-81
2022/06/16 00:09:11;;;;;;;9.88;4.93;;;;;;;27.20;45.18;100920.69;4983595;28;20042;-81
2022/06/16 00:11:56;;;;;;;13.52;5.20;;;;;;;27.23;45.11;100921.84;4994962;28;20041;-82
2022/06/16 00:14:43;;;;;;;8.85;4.55;;;;;;;27.31;44.77;100925.31;4974747;28;20049;-81
2022/06/16 00:17:30;;;;;;;16.92;5.07;;;;;;;27.27;44.68;100921.81;4987738;28;20045;-81
2022/06/16 00:20:17;;;;;;;8.10;5.72;;;;;;;27.19;44.81;100919.13;4980861;28;20519;-80
2022/06/16 00:23:03;;;;;;;9.90;5.40;;;;;;;27.18;44.57;100911.94;4979470;28;20054;-81
2022/06/16 00:25:48;;;;;;;7.93;4.38;;;;;;;27.17;44.52;100915.94;4979934;28;20042;-81
2022/06/16 00:28:34;;;;;;;10.43;4.57;;;;;;;27.20;44.20;100914.31;4983350;28;20054;-80
2022/06/16 00:31:22;;;;;;;13.90;4.90;;;;;;;27.30;44.43;100926.53;4984540;28;20047;-80
2022/06/16 00:34:08;;;;;;;16.17;6.15;;;;;;;27.32;44.37;100927.69;4969776;28;20042;-81
2022/06/16 00:36:54;;;;;;;13.88;5.00;;;;;;;26.96;45.48;100921.88;4984515;28;20058;-78
2022/06/16 00:39:43;;;;;;;34.40;6.68;;;;;;;26.18;47.48;100927.66;4986226;28;20034;-78
2022/06/16 00:42:30;;;;;;;22.75;4.82;;;;;;;25.90;48.44;100926.00;4998935;28;20049;-79
2022/06/16 00:45:47;;;;;;;17.05;5.03;;;;;;;25.89;48.91;100932.78;4994056;28;20534;-78
2022/06/16 00:48:42;;;;;;;9.93;4.60;;;;;;;25.75;49.14;100932.94;4980283;28;20050;-79
2022/06/16 00:51:39;;;;;;;10.27;5.55;;;;;;;25.74;49.11;100925.78;4978569;28;20062;-79
2022/06/16 00:54:34;;;;;;;12.80;5.00;;;;;;;25.40;50.32;100931.22;4985953;28;20046;-79
2022/06/16 00:57:31;;;;;;;11.35;5.32;;;;;;;25.48;49.77;100927.19;4979302;28;20055;-79
2022/06/16 01:06:30;;;;;;;14.60;6.30;;;;;;;25.25;50.90;100921.41;4991742;28;20050;-79
2022/06/16 01:09:22;;;;;;;18.92;6.50;;;;;;;25.20;51.40;100913.50;4979305;28;20035;-79
2022/06/16 01:15:27;;;;;;;8.02;5.70;;;;;;;25.10;51.94;100912.38;4996923;28;20043;-79
2022/06/16 01:18:30;;;;;;;8.80;5.65;;;;;;;25.04;52.10;100925.16;4990055;28;20058;-79
2022/06/16 01:21:21;;;;;;;10.20;5.88;;;;;;;24.95;52.40;100920.03;4997565;28;20424;-78
2022/06/16 01:24:23;;;;;;;12.05;6.68;;;;;;;24.99;52.04;100918.00;4997130;28;20050;-79
2022/06/16 01:27:46;;;;;;;10.90;6.18;;;;;;;25.03;51.92;100916.03;4989530;28;20042;-78
2022/06/16 01:30:37;;;;;;;17.42;7.07;;;;;;;25.04;51.59;100917.59;4979360;28;20053;-79
2022/06/16 01:33:41;;;;;;;13.48;6.47;;;;;;;24.98;52.31;100913.69;4979579;28;20043;-79
2022/06/16 01:36:43;;;;;;;12.05;6.25;;;;;;;25.04;52.19;100914.81;4985453;28;20057;-79
2022/06/16 01:39:43;;;;;;;11.55;6.30;;;;;;;25.10;51.81;100906.81;4980300;28;20043;-79
2022/06/16 01:42:40;;;;;;;12.88;6.60;;;;;;;25.00;52.23;100905.69;4996861;28;20046;-79
2022/06/16 01:45:35;;;;;;;11.45;8.55;;;;;;;24.66;52.78;100902.72;4979340;28;20050;-79
2022/06/16 01:48:25;;;;;;;13.30;7.70;;;;;;;24.69;52.69;100903.88;4997160;28;20046;-79
2022/06/16 01:51:24;;;;;;;18.65;8.48;;;;;;;24.62;52.65;100901.97;5002958;28;20038;-78
2022/06/16 01:54:34;;;;;;;17.42;7.95;;;;;;;24.65;52.48;100901.13;4993066;28;20046;-79
2022/06/16 01:57:31;;;;;;;16.80;6.72;;;;;;;24.65;52.78;100890.00;4999507;28;20046;-79
2022/06/16 02:00:24;;;;;;;12.00;7.78;;;;;;;24.65;52.72;100895.56;4987096;28;20043;-79
2022/06/16 02:03:31;;;;;;;24.25;9.20;;;;;;;24.74;52.34;100886.00;5003844;28;20065;-80
2022/06/16 02:06:28;;;;;;;14.57;7.38;;;;;;;24.71;52.66;100882.81;4991999;28;20046;-79
2022/06/16 02:09:27;;;;;;;14.60;8.40;;;;;;;24.71;52.52;100882.03;4971444;28;20035;-80
2022/06/16 02:15:48;;;;;;;11.60;7.47;;;;;;;24.75;52.16;100871.66;5004153;28;20042;-79
2022/06/16 02:18:39;;;;;;;13.00;7.40;;;;;;;24.84;51.98;100876.78;4984399;28;20042;-80
2022/06/16 02:21:36;;;;;;;12.25;7.72;;;;;;;24.78;52.62;100886.75;4980142;28;20423;-80
2022/06/16 02:24:28;;;;;;;13.65;7.35;;;;;;;24.70;52.38;100881.22;4996524;28;20047;-80
2022/06/16 02:27:15;;;;;;;15.32;7.40;;;;;;;24.61;52.78;100880.91;4980578;28;20035;-79
2022/06/16 02:30:02;;;;;;;11.30;7.68;;;;;;;24.73;52.52;100878.84;4977241;28;20062;-79
2022/06/16 02:33:12;;;;;;;12.00;6.88;;;;;;;24.70;52.51;100881.22;4995130;28;20558;-78
2022/06/16 02:36:09;;;;;;;10.55;7.20;;;;;;;24.55;52.53;100876.97;4990977;28;20046;-79
2022/06/16 02:39:27;;;;;;;10.35;7.38;;;;;;;24.29;53.29;100883.03;4997761;28;20043;-78
2022/06/16 02:42:29;;;;;;;16.70;9.23;;;;;;;24.14;53.67;100870.38;4997765;28;20042;-78
2022/06/16 02:45:38;;;;;;;15.13;9.32;;;;;;;23.90;54.99;100871.28;5001122;28;20074;-77
2022/06/16 02:48:37;;;;;;;15.73;7.63;;;;;;;24.42;53.41;100863.94;4998501;28;20054;-78
2022/06/16 02:51:39;;;;;;;13.02;7.05;;;;;;;24.38;53.29;100866.72;5004511;28;20031;-77
2022/06/16 02:54:41;;;;;;;18.95;6.85;;;;;;;24.25;53.21;100858.06;4984318;28;20057;-77
2022/06/16 02:57:46;;;;;;;11.38;6.85;;;;;;;24.28;53.27;100853.66;4988359;28;20073;-78
2022/06/16 03:00:42;;;;;;;12.85;6.53;;;;;;;24.21;53.69;100850.94;4983532;28;20046;-78
2022/06/16 03:03:30;;;;;;;14.77;6.80;;;;;;;24.31;53.10;100857.63;4987120;28;20417;-78
2022/06/16 03:06:24;;;;;;;14.68;6.15;;;;;;;24.28;53.34;100853.66;4997666;28;20046;-78
2022/06/16 03:09:13;;;;;;;10.27;6.97;;;;;;;24.35;52.83;100864.75;4981084;28;20037;-78
2022/06/16 03:12:02;;;;;;;13.77;6.57;;;;;;;24.33;53.30;100867.13;4999060;28;20050;-78
2022/06/16 03:14:49;;;;;;;16.38;5.82;;;;;;;24.29;53.17;100864.38;5002935;28;20046;-78
2022/06/16 03:17:36;;;;;;;12.63;6.75;;;;;;;24.32;53.06;100862.81;4995592;28;20054;-78
2022/06/16 03:20:24;;;;;;;7.95;5.85;;;;;;;24.32;53.33;100864.78;4996040;28;20416;-78
2022/06/16 03:23:10;;;;;;;12.73;6.30;;;;;;;24.43;52.95;100866.28;4997260;28;20062;-78
2022/06/16 03:25:58;;;;;;;13.32;6.07;;;;;;;24.46;52.82;100873.03;4994736;28;20046;-78
2022/06/16 03:28:45;;;;;;;12.68;6.63;;;;;;;24.29;53.18;100866.38;4985553;28;20045;-78
2022/06/16 03:31:37;;;;;;;11.02;7.05;;;;;;;24.07;53.50;100865.66;4997723;28;20039;-78
2022/06/16 03:34:24;;;;;;;22.13;7.03;;;;;;;24.11;53.47;100862.88;4982353;28;20579;-78
2022/06/16 03:37:10;;;;;;;15.57;7.10;;;;;;;23.96;53.98;100869.69;4985217;28;20047;-78
2022/06/16 03:40:02;;;;;;;11.40;6.65;;;;;;;23.96;54.17;100866.91;4996799;28;20043;-78
2022/06/16 03:42:50;;;;;;;13.98;6.43;;;;;;;24.04;53.82;100866.47;4995563;28;20058;-78
2022/06/16 03:45:37;;;;;;;11.00;6.85;;;;;;;24.22;53.29;100869.19;4985309;28;20439;-78
2022/06/16 03:48:24;;;;;;;11.95;6.15;;;;;;;24.25;53.27;100865.59;4995911;28;20041;-79
2022/06/16 03:51:11;;;;;;;11.50;5.40;;;;;;;24.32;53.16;100865.56;4991166;28;20061;-79
2022/06/16 03:54:01;;;;;;;15.73;6.78;;;;;;;24.36;53.06;100868.34;4992796;28;20038;-79
2022/06/16 03:56:49;;;;;;;9.95;6.57;;;;;;;24.42;52.58;100864.72;4991739;28;20043;-79
2022/06/16 03:59:37;;;;;;;10.55;6.43;;;;;;;24.65;52.33;100876.09;4985197;28;20042;-78
2022/06/16 04:02:31;;;;;;;11.17;6.00;;;;;;;24.74;51.96;100877.66;4994116;28;20047;-79
2022/06/16 04:05:19;;;;;;;14.00;7.28;;;;;;;24.68;52.00;100875.31;4995639;28;20050;-79
2022/06/16 04:08:13;;;;;;;11.07;7.32;;;;;;;24.82;51.83;100881.97;4985303;28;20046;-79
2022/06/16 04:11:26;;;;;;;13.60;7.07;;;;;;;24.89;51.20;100874.38;4989335;28;20045;-79
2022/06/16 04:14:10;;;;;;;11.52;7.97;;;;;;;24.74;51.60;100870.06;4995127;28;20057;-79
2022/06/16 04:17:17;;;;;;;8.45;6.40;;;;;;;24.87;51.31;100865.66;4983938;28;20039;-79
2022/06/16 04:20:13;;;;;;;14.90;8.70;;;;;;;25.01;50.97;100864.75;4995020;28;20416;-78
2022/06/16 04:23:10;;;;;;;8.85;6.43;;;;;;;25.16;50.56;100874.56;4984212;28;20062;-79
2022/06/16 04:25:56;;;;;;;12.30;7.57;;;;;;;25.17;50.73;100870.56;4976550;28;20057;-79
2022/06/16 04:28:45;;;;;;;10.48;7.70;;;;;;;25.23;50.31;100870.94;4987436;28;20034;-79
2022/06/16 04:31:33;;;;;;;13.57;7.38;;;;;;;25.30;50.26;100873.63;4982838;28;20065;-79
2022/06/16 04:34:20;;;;;;;11.90;7.10;;;;;;;25.48;49.78;100880.63;4996046;28;20061;-79
2022/06/16 04:37:06;;;;;;;13.68;7.18;;;;;;;25.54;49.33;100878.19;4986160;28;20043;-79
2022/06/16 04:39:53;;;;;;;23.42;7.28;;;;;;;25.65;49.32;100883.69;4989059;28;20624;-79
2022/06/16 04:42:39;;;;;;;9.57;6.72;;;;;;;25.82;48.95;100888.25;4981953;28;20058;-78
2022/06/16 04:45:28;;;;;;;10.93;6.90;;;;;;;25.77;48.99;100891.50;4984575;28;20066;-78
2022/06/16 04:48:15;;;;;;;10.90;5.85;;;;;;;25.41;49.93;100886.25;5002709;28;20042;-79
2022/06/16 04:51:04;;;;;;;13.30;6.65;;;;;;;25.85;49.26;100898.59;4981644;28;20046;-79
2022/06/16 04:53:51;;;;;;;25.38;7.40;;;;;;;25.90;49.00;100920.44;4985532;28;20069;-78
2022/06/16 04:56:41;;;;;;;12.57;6.82;;;;;;;25.43;50.80;100911.72;4995253;28;20039;-78
2022/06/16 04:59:46;;;;;;;24.42;7.38;;;;;;;25.42;50.76;100912.13;4972326;28;20519;-78
2022/06/16 05:02:47;;;;;;;18.52;7.00;;;;;;;25.63;50.54;100919.50;4981167;28;20412;-78
2022/06/16 05:05:56;;;;;;;13.55;7.32;;;;;;;25.83;50.19;100920.50;4978805;28;20053;-78
2022/06/16 05:08:50;;;;;;;12.98;6.57;;;;;;;26.02;49.66;100921.88;4990645;28;20038;-77
2022/06/16 05:11:54;;;;;;;13.77;7.28;;;;;;;26.13;48.60;100914.97;4993244;28;20041;-77
2022/06/16 05:14:59;;;;;;;11.55;6.35;;;;;;;26.22;48.48;100917.28;4973686;28;20054;-77
2022/06/16 05:18:06;;;;;;;16.52;6.72;;;;;;;26.12;48.00;100918.97;4975309;28;20054;-78
2022/06/16 05:21:13;;;;;;;18.42;5.68;;;;;;;26.51;47.55;100924.09;5064900;23;20062;-62
2022/06/16 05:24:15;;;;;;;14.73;5.85;;;;;;;26.70;47.18;100922.63;5002052;28;20508;-62
2022/06/16 05:27:09;;;;;;;15.35;6.00;;;;;;;26.63;46.97;100915.16;5007480;28;20034;-62
2022/06/16 05:30:09;;;;;;;12.13;5.93;;;;;;;26.57;46.42;100904.88;4986864;28;20489;-61
2022/06/16 05:33:09;;;;;;;25.48;6.00;;;;;;;27.03;46.44;100929.34;4979744;28;20494;-62
2022/06/16 05:36:14;;;;;;;20.40;5.95;;;;;;;27.14;45.74;100927.97;4988477;28;20042;-63
2022/06/16 05:39:30;;;;;;;18.83;5.38;;;;;;;27.21;45.33;100925.06;4978543;28;20057;-63
2022/06/16 05:42:51;;;;;;;20.67;5.25;;;;;;;27.34;45.17;100939.22;4997176;28;20081;-62
2022/06/16 05:45:56;;;;;;;26.13;6.22;;;;;;;27.23;44.82;100942.19;4991617;28;20042;-63
2022/06/16 05:48:49;;;;;;;16.48;4.25;;;;;;;27.33;45.06;100936.88;4990846;28;20049;-63
2022/06/16 05:51:37;;;;;;;27.52;6.10;;;;;;;27.37;44.91;100943.19;4991709;28;20046;-62
2022/06/16 05:54:24;;;;;;;14.95;4.55;;;;;;;27.29;44.63;100944.50;4991882;28;20054;-62
2022/06/16 05:57:09;;;;;;;17.08;3.70;;;;;;;26.93;43.85;100945.03;4996781;28;20049;-62
2022/06/16 05:59:55;;;;;;;13.73;4.18;;;;;;;27.17;44.32;100946.66;4994468;28;20405;-62
2022/06/16 06:02:41;;;;;;;15.95;3.33;;;;;;;27.45;44.01;100951.00;4991248;28;20521;-62
2022/06/16 06:05:28;;;;;;;7.50;3.70;;;;;;;27.70;43.32;100955.41;4991335;28;20050;-63
2022/06/16 06:17:43;;;;;;;12.55;3.83;;;;;;;27.23;43.74;100947.75;4981431;28;20038;-63
2022/06/16 06:20:27;;;;;;;11.15;3.38;;;;;;;27.41;43.23;100949.50;4972542;28;20498;-63
2022/06/16 06:23:13;;;;;;;10.15;4.25;;;;;;;26.91;43.17;100938.31;4976529;28;20681;-62
2022/06/16 06:25:59;;;;;;;10.70;4.18;;;;;;;27.31;43.98;100940.06;4988584;28;20042;-62
2022/06/16 06:28:44;;;;;;;11.60;4.60;;;;;;;27.59;43.35;100942.41;4984959;28;20050;-63
2022/06/16 06:31:29;;;;;;;5.10;4.07;;;;;;;28.46;41.10;100945.94;4980047;28;20035;-64
2022/06/16 06:34:14;;;;;;;7.13;3.45;;;;;;;29.07;39.77;100948.19;4984125;28;20049;-65
2022/06/16 06:37:00;;;;;;;7.68;3.80;;;;;;;27.84;40.64;100949.53;4974949;28;20058;-65
2022/06/16 06:39:45;;;;;;;6.05;3.30;;;;;;;26.80;43.49;100957.97;4978400;28;20049;-65
2022/06/16 06:42:30;;;;;;;4.72;3.03;;;;;;;27.08;42.78;100963.16;4989887;28;20410;-64
2022/06/16 06:45:16;;;;;;;10.18;3.63;;;;;;;27.36;42.54;100966.72;4972297;28;20045;-65
2022/06/16 06:48:01;;;;;;;7.82;3.08;;;;;;;28.07;41.55;100972.69;4980709;28;20042;-64
2022/06/16 06:50:46;;;;;;;3.85;3.15;;;;;;;28.07;41.65;100958.69;4981633;28;20513;-64
2022/06/16 06:53:31;;;;;;;10.10;4.18;;;;;;;28.71;40.79;100960.19;4991140;28;20049;-68
2022/06/16 06:56:17;;;;;;;7.90;3.60;;;;;;;29.01;40.15;100956.31;4990669;28;20045;-74
2022/06/16 06:59:09;;;;;;;9.88;3.60;;;;;;;28.65;40.25;100947.91;4989580;28;20053;-64
2022/06/16 07:01:55;;;;;;;13.13;3.63;;;;;;;28.21;41.19;100943.66;4991240;28;20057;-63
2022/06/16 07:04:40;;;;;;;5.63;3.30;;;;;;;27.97;41.23;100940.13;4981620;28;20053;-64
2022/06/16 07:07:26;;;;;;;6.65;3.72;;;;;;;27.75;41.69;100943.72;4986870;28;20524;-64
2022/06/16 07:10:11;;;;;;;4.80;2.60;;;;;;;27.68;41.79;100950.25;4989538;28;20042;-63
2022/06/16 07:12:56;;;;;;;4.97;3.10;;;;;;;27.60;42.06;100949.56;4973392;28;20409;-64
2022/06/16 07:15:41;;;;;;;8.00;3.38;;;;;;;27.54;42.02;100958.84;4981199;28;20420;-64
2022/06/16 07:18:26;;;;;;;6.82;3.03;;;;;;;27.50;42.18;100960.94;4979835;28;20053;-64
2022/06/16 07:21:11;;;;;;;9.95;4.63;;;;;;;27.47;42.22;100956.19;4972691;28;20042;-63
2022/06/16 07:23:57;;;;;;;11.00;3.97;;;;;;;27.43;42.25;100964.59;4982279;28;20045;-63
2022/06/16 07:26:41;;;;;;;10.80;2.85;;;;;;;27.44;42.62;100959.81;4986601;28;20034;-63
2022/06/16 07:29:27;;;;;;;8.20;4.07;;;;;;;27.45;42.25;100953.00;4979936;28;20043;-63
2022/06/16 07:32:13;;;;;;;7.18;3.08;;;;;;;27.44;42.16;100959.81;4982613;28;20057;-63
2022/06/16 07:34:58;;;;;;;4.25;3.20;;;;;;;27.46;42.15;100960.19;4980680;28;20049;-63
2022/06/16 07:37:43;;;;;;;6.93;3.22;;;;;;;27.46;42.12;100955.38;4982301;28;20050;-64
2022/06/16 07:40:28;;;;;;;42.00;5.30;;;;;;;27.48;42.17;100954.97;4984759;28;20406;-63
2022/06/16 07:43:13;;;;;;;19.85;3.15;;;;;;;27.48;42.06;100957.75;4992676;28;20038;-63
2022/06/16 07:46:00;;;;;;;17.52;3.75;;;;;;;27.47;42.59;100962.56;4993781;28;20038;-63
2022/06/16 07:48:45;;;;;;;7.55;3.15;;;;;;;27.47;42.62;100962.56;4989135;28;20501;-63
2022/06/16 07:51:31;;;;;;;20.42;3.53;;;;;;;27.49;42.17;100953.72;4987313;28;20061;-63
2022/06/16 07:54:17;;;;;;;10.95;3.50;;;;;;;27.46;41.98;100943.41;4980692;28;20482;-64
2022/06/16 07:57:02;;;;;;;15.25;3.75;;;;;;;27.53;41.71;100940.53;4993081;28;20042;-63
2022/06/16 07:59:51;;;;;;;19.10;3.67;;;;;;;27.54;41.59;100934.50;4993386;28;20536;-63
2022/06/16 08:02:35;;;;;;;13.23;6.20;;;;;;;27.55;42.12;100938.88;4985006;28;20050;-63
2022/06/16 08:05:21;;;;;;;6.50;3.72;;;;;;;27.59;42.00;100922.84;4992703;28;20402;-62
2022/06/16 08:08:06;;;;;;;16.05;5.03;;;;;;;27.61;41.82;100925.22;4983541;28;20533;-63
2022/06/16 08:10:52;;;;;;;7.15;3.38;;;;;;;27.63;41.96;100922.78;4988144;28;20030;-63
2022/06/16 08:13:37;;;;;;;9.65;4.38;;;;;;;27.68;41.78;100921.50;4980103;28;20065;-63
2022/06/16 08:16:22;;;;;;;7.43;4.18;;;;;;;27.71;41.87;100924.22;4985498;28;20049;-63
2022/06/16 08:19:07;;;;;;;17.75;6.03;;;;;;;27.78;42.41;100921.31;4988401;28;20053;-62
2022/06/16 08:21:52;;;;;;;9.23;4.28;;;;;;;27.80;41.49;100899.31;4976856;28;20038;-65
2022/06/16 08:24:37;;;;;;;8.85;3.03;;;;;;;27.80;41.61;100890.13;4982020;28;20061;-62
2022/06/16 08:27:28;;;;;;;17.85;4.03;;;;;;;27.88;41.61;100897.97;4985921;28;20061;-63
2022/06/16 08:30:17;;;;;;;8.90;3.22;;;;;;;27.87;42.03;100895.59;4989035;28;20034;-64
2022/06/16 08:33:03;;;;;;;9.38;4.85;;;;;;;27.90;42.24;100884.31;4987284;28;20056;-64
2022/06/16 08:35:49;;;;;;;6.57;4.57;;;;;;;28.08;42.47;100889.56;4992664;28;20521;-63
2022/06/16 08:38:34;;;;;;;15.90;6.97;;;;;;;28.19;41.89;100884.56;4984445;28;20049;-64
2022/06/16 08:41:43;;;;;;;9.50;6.65;;;;;;;28.34;41.92;100887.88;4970295;28;20031;-64
2022/06/16 08:44:39;;;;;;;15.07;7.53;;;;;;;28.45;41.74;100885.59;4991021;28;20065;-63
2022/06/16 08:47:40;;;;;;;8.60;5.93;;;;;;;28.54;41.17;100888.63;4992938;28;20429;-65
2022/06/16 08:51:13;;;;;;;12.35;7.15;;;;;;;28.58;41.58;100871.72;4994013;28;20521;-65
2022/06/16 08:54:13;;;;;;;14.95;8.23;;;;;;;28.62;41.49;100867.63;4995297;28;20045;-64
2022/06/16 08:57:24;;;;;;;12.88;6.65;;;;;;;28.69;40.93;100872.28;4992420;28;20034;-64
2022/06/16 09:00:16;;;;;;;12.25;6.78;;;;;;;28.71;41.41;100858.63;4993092;28;20385;-65
2022/06/16 09:03:21;;;;;;;13.45;7.10;;;;;;;28.81;41.89;100871.59;4993414;28;20042;-66
2022/06/16 09:06:41;;;;;;;13.35;5.25;;;;;;;28.85;41.37;100877.94;4982978;28;20054;-67
2022/06/16 09:12:53;;;;;;;11.00;7.47;;;;;;;28.99;40.93;100885.19;4984946;28;20520;-64
2022/06/16 09:15:50;;;;;;;7.65;5.63;;;;;;;29.11;40.69;100878.88;4991282;28;20045;-63
2022/06/16 09:18:35;;;;;;;9.93;5.30;;;;;;;29.12;40.18;100877.66;4991770;28;20057;-64
2022/06/16 09:21:44;;;;;;;8.27;5.15;;;;;;;29.22;41.24;100885.78;4992190;28;20041;-65
2022/06/16 09:24:33;;;;;;;10.88;5.00;;;;;;;29.34;40.71;100887.13;4991391;28;20049;-66
2022/06/16 09:27:40;;;;;;;15.13;6.38;;;;;;;29.40;40.45;100871.38;4991893;28;20097;-66
2022/06/16 09:30:32;;;;;;;10.00;4.85;;;;;;;29.49;40.11;100882.72;4984496;28;20042;-65
2022/06/16 09:33:23;;;;;;;6.65;4.15;;;;;;;29.51;40.26;100888.66;4988165;28;20067;-63
2022/06/16 09:36:33;;;;;;;7.43;5.55;;;;;;;29.66;40.28;100886.28;4991677;28;20041;-63
2022/06/16 09:39:24;;;;;;;8.38;5.32;;;;;;;29.67;40.17;100880.22;4993657;28;20402;-63
2022/06/16 09:42:35;;;;;;;8.38;4.00;;;;;;;29.75;39.90;100884.41;4992286;28;20042;-64
2022/06/16 09:45:31;;;;;;;9.00;5.85;;;;;;;29.93;39.68;100875.53;4988707;28;20053;-63
2022/06/16 09:48:35;;;;;;;6.63;4.78;;;;;;;30.01;39.26;100873.31;4986864;28;20038;-63
2022/06/16 09:51:27;;;;;;;9.80;4.85;;;;;;;30.16;39.20;100883.69;4985478;28;20041;-64
2022/06/16 09:54:19;;;;;;;8.75;4.55;;;;;;;30.17;38.80;100892.88;4987264;28;20045;-65
2022/06/16 09:57:17;;;;;;;18.10;6.05;;;;;;;30.23;38.50;100891.06;4986203;28;20166;-65
2022/06/16 10:00:13;;;;;;;16.52;5.65;;;;;;;30.37;38.21;100887.88;4995508;28;20042;-65
2022/06/16 10:03:30;;;;;;;17.42;5.85;;;;;;;30.34;38.30;100882.34;4990222;28;20044;-65
2022/06/16 10:06:33;;;;;;;9.75;5.43;;;;;;;30.26;39.27;100881.78;4982696;28;20050;-64
2022/06/16 10:09:36;;;;;;;7.93;5.80;;;;;;;30.26;38.99;100887.41;4983182;28;20050;-64
2022/06/16 10:12:27;;;;;;;9.48;5.15;;;;;;;30.31;39.22;100881.22;4984675;28;20049;-62
2022/06/16 10:15:30;;;;;;;11.77;5.93;;;;;;;30.29;39.31;100882.91;4983392;28;20050;-62
2022/06/16 10:18:17;;;;;;;14.50;5.05;;;;;;;30.22;39.27;100881.09;4983220;28;20653;-64
2022/06/16 10:21:07;;;;;;;8.40;4.63;;;;;;;30.15;39.72;100881.31;4982864;28;20034;-64
2022/06/16 10:23:58;;;;;;;12.05;4.93;;;;;;;30.13;39.87;100881.75;4989640;28;20049;-65
2022/06/16 10:26:43;;;;;;;15.98;4.28;;;;;;;30.12;39.82;100893.44;4986180;28;20042;-65
2022/06/16 10:29:32;;;;;;;11.13;4.10;;;;;;;30.14;39.65;100882.53;4990303;28;20058;-64
2022/06/16 10:32:17;;;;;;;13.88;4.47;;;;;;;30.06;40.30;100873.56;4987090;28;20039;-65
2022/06/16 10:35:05;;;;;;;10.32;4.50;;;;;;;30.11;39.49;100872.22;4988577;28;20049;-64
2022/06/16 10:37:53;;;;;;;9.00;4.43;;;;;;;30.18;39.30;100881.19;4988691;28;20053;-65
2022/06/16 10:40:41;;;;;;;153.50;12.68;;;;;;;30.35;38.67;100879.09;4991222;28;20072;-63
2022/06/16 10:43:27;;;;;;;14.23;6.18;;;;;;;30.64;37.38;100875.44;4982758;28;20043;-65
2022/06/16 10:46:20;;;;;;;7.72;4.22;;;;;;;30.85;36.83;100871.94;4981920;28;20496;-65
2022/06/16 10:49:15;;;;;;;20.60;6.53;;;;;;;30.90;36.71;100880.59;4980475;28;20046;-66
2022/06/16 10:52:14;;;;;;;18.92;4.50;;;;;;;30.82;37.23;100879.25;4980959;28;20034;-67
2022/06/16 10:55:11;;;;;;;13.60;4.10;;;;;;;30.75;37.76;100884.31;4986298;28;20034;-67
2022/06/16 10:58:05;;;;;;;7.18;4.35;;;;;;;30.69;38.14;100888.91;4982564;28;20057;-65
2022/06/16 11:01:02;;;;;;;13.63;4.80;;;;;;;30.71;38.30;100900.50;4987816;28;20494;-65
2022/06/16 11:03:50;;;;;;;9.32;3.72;;;;;;;30.55;38.27;100896.56;4983073;28;20038;-65
2022/06/16 11:06:45;;;;;;;9.35;3.88;;;;;;;30.57;38.33;100896.91;4988485;28;20410;-65
2022/06/16 11:09:34;;;;;;;306.65;65.30;;;;;;;30.64;38.44;100892.28;4986004;28;20045;-66
2022/06/16 11:12:23;;;;;;;284.08;57.92;;;;;;;30.75;38.22;100889.94;4978185;28;20035;-66
2022/06/16 11:15:21;;;;;;;42.10;12.57;;;;;;;31.00;37.05;100889.91;4985931;28;20038;-66
2022/06/16 11:18:13;;;;;;;41.10;12.75;;;;;;;31.00;37.11;100881.47;4987683;28;20038;-66
2022/06/16 11:21:00;;;;;;;131.30;32.38;;;;;;;31.07;36.98;100877.69;4981668;28;20039;-66
2022/06/16 11:23:51;;;;;;;94.13;23.55;;;;;;;30.96;37.26;100883.63;5051104;22;20042;-66
2022/06/16 11:26:42;;;;;;;65.00;19.40;;;;;;;31.06;37.12;100876.91;4983711;28;20059;-65
2022/06/16 11:29:34;;;;;;;32.72;12.35;;;;;;;31.12;37.12;100857.44;4986932;28;20042;-65
2022/06/16 11:32:24;;;;;;;18.08;7.88;;;;;;;31.24;36.57;100860.22;4993562;28;20042;-64
2022/06/16 11:35:11;;;;;;;14.88;5.80;;;;;;;31.33;36.27;100856.72;4976620;28;20042;-64
2022/06/16 11:38:09;;;;;;;12.63;5.45;;;;;;;31.39;35.84;100860.53;4984673;28;20042;-64
2022/06/16 11:41:01;;;;;;;54.28;14.88;;;;;;;31.22;36.55;100854.28;4983991;28;20034;-64
2022/06/16 11:44:00;;;;;;;20.05;8.77;;;;;;;31.21;36.69;100849.09;4984230;28;20410;-64
2022/06/16 11:46:51;;;;;;;8.10;4.70;;;;;;;31.39;36.51;100850.03;4974157;28;20494;-64
2022/06/16 11:49:52;;;;;;;13.52;3.90;;;;;;;31.53;35.87;100831.13;4975014;28;20049;-64
2022/06/16 11:53:05;;;;;;;8.77;4.03;;;;;;;31.56;35.60;100825.34;4974393;28;20031;-64
2022/06/16 11:56:25;;;;;;;9.97;4.93;;;;;;;31.70;35.13;100824.06;4979668;28;20050;-64
2022/06/16 11:59:16;;;;;;;9.80;4.75;;;;;;;31.80;35.42;100828.50;4974452;28;20049;-64
2022/06/16 12:02:19;;;;;;;13.85;4.75;;;;;;;31.87;35.21;100822.63;4975399;28;20505;-64
2022/06/16 12:05:12;;;;;;;9.32;4.90;;;;;;;31.89;34.83;100822.97;4978028;28;20045;-64
2022/06/16 12:08:14;;;;;;;7.00;4.33;;;;;;;31.99;34.45;100810.53;4986836;28;20053;-64
2022/06/16 12:11:33;;;;;;;9.85;4.25;;;;;;;31.81;35.36;100818.84;4992855;28;20061;-64
2022/06/16 12:14:47;;;;;;;9.88;4.32;;;;;;;31.92;35.12;100807.97;4971000;28;20509;-64
2022/06/16 12:17:36;;;;;;;14.88;5.80;;;;;;;31.89;35.08;100813.75;4975876;28;20501;-64
2022/06/16 12:20:49;;;;;;;4.95;3.92;;;;;;;32.01;35.17;100813.66;4990591;28;20494;-64
2022/06/16 12:23:43;;;;;;;8.02;4.97;;;;;;;31.85;35.15;100802.59;4987618;28;20062;-64
2022/06/16 12:26:36;;;;;;;11.15;4.72;;;;;;;31.84;35.48;100806.69;4972739;28;20062;-64
2022/06/16 12:29:34;;;;;;;12.25;4.20;;;;;;;31.96;35.34;100799.38;4970963;28;20046;-65
2022/06/16 12:32:34;;;;;;;8.73;4.20;;;;;;;32.07;34.97;100806.19;4971832;28;20035;-64
2022/06/16 12:35:26;;;;;;;7.32;5.22;;;;;;;32.18;34.85;100808.63;4970527;28;20046;-64
2022/06/16 12:38:25;;;;;;;7.28;4.47;;;;;;;32.07;35.04;100800.56;4968525;28;20050;-64
2022/06/16 12:41:20;;;;;;;12.75;4.43;;;;;;;31.79;35.46;100796.03;4977891;28;20038;-64
2022/06/16 12:44:23;;;;;;;10.52;4.07;;;;;;;31.76;35.63;100799.75;4979790;28;20046;-64
2022/06/16 12:47:22;;;;;;;6.88;4.78;;;;;;;31.73;35.64;100790.22;4993663;28;20052;-64
2022/06/16 12:50:13;;;;;;;8.80;4.85;;;;;;;31.84;35.72;100787.00;4993196;28;20057;-65
2022/06/16 12:53:13;;;;;;;8.07;4.55;;;;;;;32.01;35.26;100784.72;4993295;28;20426;-64
2022/06/16 12:56:20;;;;;;;8.10;4.50;;;;;;;32.22;35.09;100779.09;4980619;28;20046;-64
2022/06/16 12:59:39;;;;;;;9.45;4.10;;;;;;;32.40;34.58;100766.34;4975478;28;20051;-65
2022/06/16 13:02:33;;;;;;;8.02;4.18;;;;;;;32.47;34.77;100760.38;4973373;28;20053;-64
2022/06/16 13:05:20;;;;;;;12.43;5.15;;;;;;;32.61;34.06;100759.81;4972301;28;20057;-64
2022/06/16 13:08:06;;;;;;;5.78;3.78;;;;;;;32.49;34.42;100766.34;4973636;28;20394;-64
2022/06/16 13:10:57;;;;;;;5.85;3.70;;;;;;;32.44;35.00;100767.75;4973501;28;20450;-64
2022/06/16 13:13:50;;;;;;;13.90;4.18;;;;;;;32.57;34.72;100764.81;4973567;28;20054;-64
2022/06/16 13:16:40;;;;;;;14.20;4.43;;;;;;;32.61;34.87;100763.41;4970484;28;20493;-64
2022/06/16 13:19:33;;;;;;;12.32;4.40;;;;;;;32.41;34.46;100757.41;4972948;28;20039;-64
2022/06/16 13:22:23;;;;;;;7.90;3.80;;;;;;;32.33;33.92;100753.31;4972986;28;20038;-64
2022/06/16 13:25:12;;;;;;;5.90;4.10;;;;;;;32.12;34.85;100751.34;4972583;28;20050;-64
2022/06/16 13:27:57;;;;;;;9.23;4.20;;;;;;;31.99;35.38;100739.41;4972729;28;20049;-64
2022/06/16 13:31:11;;;;;;;9.82;4.20;;;;;;;31.71;35.80;100744.09;4973076;28;20046;-64
2022/06/16 13:33:56;;;;;;;8.60;4.47;;;;;;;31.70;35.62;100740.50;4972924;28;20049;-64
2022/06/16 13:36:44;;;;;;;16.77;4.60;;;;;;;31.70;35.72;100729.25;4969682;28;20046;-65
2022/06/16 13:39:48;;;;;;;12.13;4.35;;;;;;;31.71;35.46;100718.78;4972620;28;20047;-64
2022/06/16 13:42:47;;;;;;;9.50;4.43;;;;;;;31.60;35.65;100724.81;4967139;28;20050;-64
2022/06/16 13:45:32;;;;;;;8.80;4.75;;;;;;;31.62;35.80;100729.97;4968287;28;20077;-65